sensor_id;sensor_type;location;lat;lon;timestamp;pressure;altitude;pressure_sealevel;temperature;humidity
61870;BME280;47810;42.264;23.826;2023-03-26T00:01:02;93211.84;;;10.18;67.37
61870;BME280;47810;42.264;23.826;2023-03-26T00:03:30;93213.66;;;10.18;66.90
61870;BME280;47810;42.264;23.826;2023-03-26T00:06:12;93213.94;;;10.26;67.12
61870;BME280;47810;42.264;23.826;2023-03-26T00:08:39;93226.63;;;10.21;67.26
61870;BME280;47810;42.264;23.826;2023-03-26T00:11:05;93223.53;;;10.27;67.64
61870;BME280;47810;42.264;23.826;2023-03-26T00:13:32;93243.69;;;10.28;67.84
61870;BME280;47810;42.264;23.826;2023-03-26T00:15:58;93246.44;;;10.51;67.62
61870;BME280;47810;42.264;23.826;2023-03-26T00:18:24;93250.72;;;10.40;67.80
61870;BME280;47810;42.264;23.826;2023-03-26T00:20:54;93263.53;;;10.80;66.94
61870;BME280;47810;42.264;23.826;2023-03-26T00:23:20;93282.75;;;10.47;67.23
61870;BME280;47810;42.264;23.826;2023-03-26T00:25:46;93285.72;;;10.42;68.80
61870;BME280;47810;42.264;23.826;2023-03-26T00:28:15;93285.03;;;10.40;69.20
61870;BME280;47810;42.264;23.826;2023-03-26T00:30:41;93299.66;;;10.44;68.38
61870;BME280;47810;42.264;23.826;2023-03-26T00:33:07;93305.00;;;10.32;69.28
61870;BME280;47810;42.264;23.826;2023-03-26T00:35:37;93296.47;;;10.28;69.43
61870;BME280;47810;42.264;23.826;2023-03-26T00:38:03;93302.25;;;10.20;68.27
61870;BME280;47810;42.264;23.826;2023-03-26T00:40:28;93297.41;;;10.27;68.44
61870;BME280;47810;42.264;23.826;2023-03-26T00:42:56;93293.56;;;10.07;69.09
61870;BME280;47810;42.264;23.826;2023-03-26T00:45:21;93300.94;;;10.15;68.94
61870;BME280;47810;42.264;23.826;2023-03-26T00:47:47;93298.50;;;10.12;68.73
61870;BME280;47810;42.264;23.826;2023-03-26T00:50:12;93306.03;;;10.05;68.79
61870;BME280;47810;42.264;23.826;2023-03-26T00:52:43;93299.78;;;10.06;67.35
61870;BME280;47810;42.264;23.826;2023-03-26T00:55:10;93317.72;;;10.01;68.25
61870;BME280;47810;42.264;23.826;2023-03-26T00:57:36;93311.03;;;9.84;69.25
61870;BME280;47810;42.264;23.826;2023-03-26T01:00:06;93301.56;;;9.69;68.58
61870;BME280;47810;42.264;23.826;2023-03-26T01:02:34;93296.91;;;9.72;69.14
61870;BME280;47810;42.264;23.826;2023-03-26T01:05:00;93293.78;;;9.67;69.24
61870;BME280;47810;42.264;23.826;2023-03-26T01:07:45;93293.97;;;9.77;68.74
61870;BME280;47810;42.264;23.826;2023-03-26T01:10:10;93287.03;;;9.76;69.68
61870;BME280;47810;42.264;23.826;2023-03-26T01:12:38;93289.34;;;10.04;68.36
61870;BME280;47810;42.264;23.826;2023-03-26T01:15:04;93282.91;;;9.72;70.47
61870;BME280;47810;42.264;23.826;2023-03-26T01:17:32;93268.09;;;9.82;70.33
61870;BME280;47810;42.264;23.826;2023-03-26T01:20:23;93269.47;;;9.88;69.55
61870;BME280;47810;42.264;23.826;2023-03-26T01:22:51;93255.00;;;9.93;69.46
61870;BME280;47810;42.264;23.826;2023-03-26T01:25:19;93261.34;;;10.15;70.98
61870;BME280;47810;42.264;23.826;2023-03-26T01:27:48;93256.41;;;9.86;73.75
61870;BME280;47810;42.264;23.826;2023-03-26T01:30:16;93252.50;;;9.79;72.45
61870;BME280;47810;42.264;23.826;2023-03-26T01:38:02;93247.72;;;9.97;70.29
61870;BME280;47810;42.264;23.826;2023-03-26T01:40:45;93244.44;;;10.17;69.60
61870;BME280;47810;42.264;23.826;2023-03-26T01:46:02;93242.31;;;10.22;65.54
61870;BME280;47810;42.264;23.826;2023-03-26T01:48:30;93241.78;;;10.30;64.77
61870;BME280;47810;42.264;23.826;2023-03-26T01:50:57;93228.81;;;10.27;64.16
61870;BME280;47810;42.264;23.826;2023-03-26T01:53:23;93232.56;;;10.36;63.31
61870;BME280;47810;42.264;23.826;2023-03-26T01:56:33;93236.88;;;10.13;63.99
61870;BME280;47810;42.264;23.826;2023-03-26T01:59:21;93240.63;;;10.34;63.09
61870;BME280;47810;42.264;23.826;2023-03-26T02:01:28;93240.25;;;10.39;63.31
61870;BME280;47810;42.264;23.826;2023-03-26T02:04:05;93244.44;;;10.17;65.18
61870;BME280;47810;42.264;23.826;2023-03-26T02:06:36;93236.25;;;9.85;67.22
61870;BME280;47810;42.264;23.826;2023-03-26T02:09:06;93245.06;;;9.73;67.46
61870;BME280;47810;42.264;23.826;2023-03-26T02:11:33;93247.06;;;9.69;68.00
61870;BME280;47810;42.264;23.826;2023-03-26T02:13:59;93247.25;;;9.42;68.93
61870;BME280;47810;42.264;23.826;2023-03-26T02:16:25;93241.38;;;9.13;70.00
61870;BME280;47810;42.264;23.826;2023-03-26T02:18:50;93243.69;;;9.18;70.39
61870;BME280;47810;42.264;23.826;2023-03-26T02:21:21;93251.28;;;9.22;70.59
61870;BME280;47810;42.264;23.826;2023-03-26T02:23:50;93252.13;;;9.10;70.97
61870;BME280;47810;42.264;23.826;2023-03-26T02:26:22;93251.94;;;9.00;71.36
61870;BME280;47810;42.264;23.826;2023-03-26T02:28:48;93249.16;;;8.89;71.99
61870;BME280;47810;42.264;23.826;2023-03-26T02:31:13;93248.97;;;8.92;71.40
61870;BME280;47810;42.264;23.826;2023-03-26T02:33:41;93257.59;;;8.94;71.04
61870;BME280;47810;42.264;23.826;2023-03-26T02:36:09;93259.28;;;9.08;70.27
61870;BME280;47810;42.264;23.826;2023-03-26T02:38:34;93262.13;;;9.18;70.14
61870;BME280;47810;42.264;23.826;2023-03-26T02:41:00;93250.66;;;9.19;69.88
61870;BME280;47810;42.264;23.826;2023-03-26T02:43:26;93256.56;;;9.22;68.59
61870;BME280;47810;42.264;23.826;2023-03-26T02:45:51;93261.63;;;8.87;69.38
61870;BME280;47810;42.264;23.826;2023-03-26T02:48:17;93257.59;;;9.07;69.34
61870;BME280;47810;42.264;23.826;2023-03-26T02:50:45;93256.44;;;8.73;69.27
61870;BME280;47810;42.264;23.826;2023-03-26T02:53:17;93261.00;;;8.83;68.86
61870;BME280;47810;42.264;23.826;2023-03-26T02:55:43;93260.13;;;8.70;68.96
61870;BME280;47810;42.264;23.826;2023-03-26T02:58:08;93253.59;;;8.76;68.15
61870;BME280;47810;42.264;23.826;2023-03-26T03:00:36;93256.13;;;8.65;68.75
61870;BME280;47810;42.264;23.826;2023-03-26T03:03:03;93260.63;;;8.62;68.91
61870;BME280;47810;42.264;23.826;2023-03-26T03:05:31;93273.38;;;8.69;68.44
61870;BME280;47810;42.264;23.826;2023-03-26T03:07:57;93286.22;;;8.60;68.51
61870;BME280;47810;42.264;23.826;2023-03-26T03:10:27;93284.66;;;8.71;68.16
61870;BME280;47810;42.264;23.826;2023-03-26T03:12:53;93273.38;;;8.69;67.96
61870;BME280;47810;42.264;23.826;2023-03-26T03:15:18;93272.13;;;8.74;67.71
61870;BME280;47810;42.264;23.826;2023-03-26T03:17:44;93289.78;;;8.59;68.39
61870;BME280;47810;42.264;23.826;2023-03-26T03:20:10;93292.63;;;8.56;68.67
61870;BME280;47810;42.264;23.826;2023-03-26T03:22:35;93304.09;;;8.55;68.77
61870;BME280;47810;42.264;23.826;2023-03-26T03:25:02;93305.19;;;8.11;70.85
61870;BME280;47810;42.264;23.826;2023-03-26T03:27:28;93307.53;;;8.16;71.00
61870;BME280;47810;42.264;23.826;2023-03-26T03:29:53;93312.41;;;8.22;71.10
61870;BME280;47810;42.264;23.826;2023-03-26T03:32:20;93311.88;;;8.30;69.56
61870;BME280;47810;42.264;23.826;2023-03-26T03:34:47;93308.50;;;8.42;68.91
61870;BME280;47810;42.264;23.826;2023-03-26T03:37:14;93312.44;;;8.35;68.54
61870;BME280;47810;42.264;23.826;2023-03-26T03:39:39;93322.16;;;8.47;68.78
61870;BME280;47810;42.264;23.826;2023-03-26T03:42:05;93314.53;;;8.30;68.64
61870;BME280;47810;42.264;23.826;2023-03-26T03:44:30;93316.19;;;8.31;68.78
61870;BME280;47810;42.264;23.826;2023-03-26T03:46:56;93315.63;;;8.40;67.92
61870;BME280;47810;42.264;23.826;2023-03-26T03:49:21;93317.47;;;8.25;68.53
61870;BME280;47810;42.264;23.826;2023-03-26T03:51:47;93322.91;;;8.22;68.21
61870;BME280;47810;42.264;23.826;2023-03-26T03:54:12;93316.78;;;8.22;68.10
61870;BME280;47810;42.264;23.826;2023-03-26T03:56:38;93322.88;;;8.09;68.55
61870;BME280;47810;42.264;23.826;2023-03-26T03:59:04;93321.56;;;8.02;68.07
61870;BME280;47810;42.264;23.826;2023-03-26T04:01:30;93324.94;;;8.04;67.63
61870;BME280;47810;42.264;23.826;2023-03-26T04:03:56;93323.19;;;8.17;67.27
61870;BME280;47810;42.264;23.826;2023-03-26T04:06:22;93322.13;;;8.07;67.18
61870;BME280;47810;42.264;23.826;2023-03-26T04:08:49;93319.53;;;8.20;65.95
61870;BME280;47810;42.264;23.826;2023-03-26T04:11:15;93316.00;;;8.34;65.42
61870;BME280;47810;42.264;23.826;2023-03-26T04:13:41;93320.28;;;8.49;65.02
61870;BME280;47810;42.264;23.826;2023-03-26T04:16:07;93327.09;;;8.39;64.76
61870;BME280;47810;42.264;23.826;2023-03-26T04:18:32;93327.63;;;8.44;64.78
61870;BME280;47810;42.264;23.826;2023-03-26T04:20:58;93324.84;;;8.33;64.99
61870;BME280;47810;42.264;23.826;2023-03-26T04:23:27;93327.72;;;8.15;65.28
61870;BME280;47810;42.264;23.826;2023-03-26T04:25:56;93333.59;;;8.06;66.11
61870;BME280;47810;42.264;23.826;2023-03-26T04:28:26;93336.53;;;7.87;66.64
61870;BME280;47810;42.264;23.826;2023-03-26T04:30:53;93334.88;;;7.99;66.40
61870;BME280;47810;42.264;23.826;2023-03-26T04:33:19;93338.31;;;7.87;66.71
61870;BME280;47810;42.264;23.826;2023-03-26T04:35:45;93334.47;;;7.78;67.56
61870;BME280;47810;42.264;23.826;2023-03-26T04:38:13;93344.34;;;7.75;68.23
61870;BME280;47810;42.264;23.826;2023-03-26T04:40:54;93351.84;;;7.66;68.32
61870;BME280;47810;42.264;23.826;2023-03-26T04:43:24;93356.84;;;7.57;68.69
61870;BME280;47810;42.264;23.826;2023-03-26T04:45:50;93357.09;;;7.81;67.94
61870;BME280;47810;42.264;23.826;2023-03-26T04:48:16;93363.97;;;7.83;67.99
61870;BME280;47810;42.264;23.826;2023-03-26T04:50:42;93379.66;;;7.70;68.16
61870;BME280;47810;42.264;23.826;2023-03-26T04:53:09;93384.50;;;7.62;68.52
61870;BME280;47810;42.264;23.826;2023-03-26T04:55:42;93386.47;;;7.44;69.43
61870;BME280;47810;42.264;23.826;2023-03-26T04:58:09;93398.31;;;7.80;69.12
61870;BME280;47810;42.264;23.826;2023-03-26T05:00:38;93406.47;;;7.76;69.50
61870;BME280;47810;42.264;23.826;2023-03-26T05:03:04;93416.22;;;7.74;70.46
61870;BME280;47810;42.264;23.826;2023-03-26T05:05:30;93418.28;;;7.68;70.83
61870;BME280;47810;42.264;23.826;2023-03-26T05:07:56;93426.72;;;7.74;70.31
61870;BME280;47810;42.264;23.826;2023-03-26T05:10:21;93435.00;;;7.82;70.58
61870;BME280;47810;42.264;23.826;2023-03-26T05:12:47;93437.63;;;7.96;70.00
61870;BME280;47810;42.264;23.826;2023-03-26T05:15:13;93444.47;;;8.13;69.34
61870;BME280;47810;42.264;23.826;2023-03-26T05:17:39;93448.53;;;7.90;69.79
61870;BME280;47810;42.264;23.826;2023-03-26T05:20:07;93442.13;;;7.94;69.69
61870;BME280;47810;42.264;23.826;2023-03-26T05:22:33;93449.44;;;8.03;69.96
61870;BME280;47810;42.264;23.826;2023-03-26T05:24:58;93444.09;;;7.90;69.47
61870;BME280;47810;42.264;23.826;2023-03-26T05:27:24;93440.06;;;7.85;69.70
61870;BME280;47810;42.264;23.826;2023-03-26T05:29:50;93459.41;;;8.12;69.46
61870;BME280;47810;42.264;23.826;2023-03-26T05:32:16;93460.91;;;7.88;68.68
61870;BME280;47810;42.264;23.826;2023-03-26T05:34:41;93464.09;;;7.93;68.67
61870;BME280;47810;42.264;23.826;2023-03-26T05:37:07;93468.00;;;8.14;68.19
61870;BME280;47810;42.264;23.826;2023-03-26T05:39:33;93476.66;;;8.16;67.48
61870;BME280;47810;42.264;23.826;2023-03-26T05:41:59;93465.56;;;8.26;67.06
61870;BME280;47810;42.264;23.826;2023-03-26T05:44:25;93469.59;;;8.31;67.24
61870;BME280;47810;42.264;23.826;2023-03-26T05:46:51;93468.00;;;8.43;66.62
61870;BME280;47810;42.264;23.826;2023-03-26T05:49:16;93466.47;;;8.53;66.66
61870;BME280;47810;42.264;23.826;2023-03-26T05:51:42;93469.75;;;8.57;67.31
61870;BME280;47810;42.264;23.826;2023-03-26T05:54:07;93468.72;;;8.59;67.09
61870;BME280;47810;42.264;23.826;2023-03-26T05:56:33;93465.56;;;8.54;67.11
61870;BME280;47810;42.264;23.826;2023-03-26T05:58:58;93471.31;;;8.74;66.97
61870;BME280;47810;42.264;23.826;2023-03-26T06:01:24;93468.81;;;8.85;66.49
61870;BME280;47810;42.264;23.826;2023-03-26T06:06:28;93468.22;;;8.94;65.22
61870;BME280;47810;42.264;23.826;2023-03-26T06:08:55;93476.72;;;8.85;65.08
61870;BME280;47810;42.264;23.826;2023-03-26T06:11:27;93472.03;;;8.90;65.86
61870;BME280;47810;42.264;23.826;2023-03-26T06:13:52;93470.09;;;8.92;65.99
61870;BME280;47810;42.264;23.826;2023-03-26T06:16:18;93466.31;;;8.83;65.60
61870;BME280;47810;42.264;23.826;2023-03-26T06:18:44;93469.06;;;8.95;64.71
61870;BME280;47810;42.264;23.826;2023-03-26T06:21:10;93474.34;;;8.95;64.44
61870;BME280;47810;42.264;23.826;2023-03-26T06:23:35;93473.97;;;9.14;64.66
61870;BME280;47810;42.264;23.826;2023-03-26T06:26:02;93476.56;;;9.28;63.55
61870;BME280;47810;42.264;23.826;2023-03-26T06:28:27;93474.25;;;9.36;63.90
61870;BME280;47810;42.264;23.826;2023-03-26T06:30:53;93465.38;;;9.37;63.93
61870;BME280;47810;42.264;23.826;2023-03-26T06:33:18;93471.41;;;9.39;62.56
61870;BME280;47810;42.264;23.826;2023-03-26T06:35:44;93472.78;;;9.45;61.67
61870;BME280;47810;42.264;23.826;2023-03-26T06:38:10;93459.94;;;9.53;61.78
61870;BME280;47810;42.264;23.826;2023-03-26T06:40:37;93467.53;;;9.57;61.96
61870;BME280;47810;42.264;23.826;2023-03-26T06:43:03;93458.25;;;9.65;60.32
61870;BME280;47810;42.264;23.826;2023-03-26T06:45:28;93447.31;;;9.71;60.49
61870;BME280;47810;42.264;23.826;2023-03-26T06:47:54;93446.13;;;9.75;60.20
61870;BME280;47810;42.264;23.826;2023-03-26T06:50:20;93438.84;;;9.78;58.41
61870;BME280;47810;42.264;23.826;2023-03-26T06:52:46;93444.34;;;9.88;57.69
61870;BME280;47810;42.264;23.826;2023-03-26T06:55:13;93427.16;;;9.95;58.20
61870;BME280;47810;42.264;23.826;2023-03-26T06:57:39;93422.59;;;9.97;57.62
61870;BME280;47810;42.264;23.826;2023-03-26T07:00:05;93415.81;;;10.19;57.38
61870;BME280;47810;42.264;23.826;2023-03-26T07:02:32;93416.88;;;10.29;55.93
61870;BME280;47810;42.264;23.826;2023-03-26T07:04:58;93423.41;;;10.36;57.61
61870;BME280;47810;42.264;23.826;2023-03-26T07:07:25;93425.91;;;10.51;57.39
61870;BME280;47810;42.264;23.826;2023-03-26T07:09:51;93424.28;;;10.61;56.26
61870;BME280;47810;42.264;23.826;2023-03-26T07:12:16;93424.72;;;10.55;56.21
61870;BME280;47810;42.264;23.826;2023-03-26T07:14:42;93436.59;;;10.73;56.24
61870;BME280;47810;42.264;23.826;2023-03-26T07:17:07;93432.72;;;10.90;56.21
61870;BME280;47810;42.264;23.826;2023-03-26T07:19:33;93433.09;;;10.96;54.51
61870;BME280;47810;42.264;23.826;2023-03-26T07:21:59;93422.53;;;10.96;55.25
61870;BME280;47810;42.264;23.826;2023-03-26T07:24:25;93425.25;;;11.08;54.37
61870;BME280;47810;42.264;23.826;2023-03-26T07:26:55;93432.50;;;11.28;53.94
61870;BME280;47810;42.264;23.826;2023-03-26T07:29:31;93434.88;;;11.55;54.32
61870;BME280;47810;42.264;23.826;2023-03-26T07:36:51;93434.56;;;11.82;51.88
61870;BME280;47810;42.264;23.826;2023-03-26T07:39:43;93436.31;;;12.17;51.69
61870;BME280;47810;42.264;23.826;2023-03-26T07:47:42;93427.38;;;12.63;50.47
61870;BME280;47810;42.264;23.826;2023-03-26T07:50:19;93424.19;;;12.80;50.25
61870;BME280;47810;42.264;23.826;2023-03-26T07:52:45;93426.59;;;12.95;49.01
61870;BME280;47810;42.264;23.826;2023-03-26T07:55:11;93426.50;;;13.17;47.82
61870;BME280;47810;42.264;23.826;2023-03-26T08:00:22;93419.00;;;13.22;46.63
61870;BME280;47810;42.264;23.826;2023-03-26T08:16:21;93401.97;;;13.99;41.60
61870;BME280;47810;42.264;23.826;2023-03-26T08:21:09;93403.34;;;13.93;36.51
61870;BME280;47810;42.264;23.826;2023-03-26T08:23:41;93397.56;;;14.50;34.93
61870;BME280;47810;42.264;23.826;2023-03-26T08:26:15;93382.16;;;14.84;36.45
61870;BME280;47810;42.264;23.826;2023-03-26T08:31:35;93392.81;;;14.84;33.91
61870;BME280;47810;42.264;23.826;2023-03-26T08:34:03;93388.28;;;14.65;33.80
61870;BME280;47810;42.264;23.826;2023-03-26T08:36:28;93389.44;;;15.01;35.32
61870;BME280;47810;42.264;23.826;2023-03-26T08:38:54;93387.38;;;15.14;35.62
61870;BME280;47810;42.264;23.826;2023-03-26T08:49:43;93393.13;;;15.49;33.82
61870;BME280;47810;42.264;23.826;2023-03-26T08:52:36;93390.44;;;15.58;33.78
61870;BME280;47810;42.264;23.826;2023-03-26T09:05:31;93380.56;;;16.45;32.94
61870;BME280;47810;42.264;23.826;2023-03-26T09:13:11;93378.41;;;16.21;34.46
61870;BME280;47810;42.264;23.826;2023-03-26T09:28:58;93377.63;;;17.21;32.28
61870;BME280;47810;42.264;23.826;2023-03-26T09:36:52;93370.13;;;17.42;32.65
61870;BME280;47810;42.264;23.826;2023-03-26T09:39:26;93370.09;;;17.34;32.92
61870;BME280;47810;42.264;23.826;2023-03-26T09:42:10;93372.00;;;16.69;33.96
61870;BME280;47810;42.264;23.826;2023-03-26T10:00:40;93355.88;;;17.69;33.67
61870;BME280;47810;42.264;23.826;2023-03-26T10:11:17;93333.69;;;18.21;31.99
61870;BME280;47810;42.264;23.826;2023-03-26T10:13:50;93330.34;;;19.04;31.36
61870;BME280;47810;42.264;23.826;2023-03-26T10:19:28;93326.69;;;19.38;30.59
61870;BME280;47810;42.264;23.826;2023-03-26T10:25:19;93331.63;;;18.83;30.47
61870;BME280;47810;42.264;23.826;2023-03-26T10:27:55;93326.25;;;18.75;31.33
61870;BME280;47810;42.264;23.826;2023-03-26T10:30:31;93326.34;;;19.08;29.66
61870;BME280;47810;42.264;23.826;2023-03-26T10:38:20;93314.00;;;19.23;29.03
61870;BME280;47810;42.264;23.826;2023-03-26T10:53:48;93285.84;;;20.01;27.08
61870;BME280;47810;42.264;23.826;2023-03-26T10:58:54;93283.66;;;19.96;28.33
61870;BME280;47810;42.264;23.826;2023-03-26T11:01:23;93274.16;;;19.04;27.65
61870;BME280;47810;42.264;23.826;2023-03-26T11:03:52;93274.50;;;19.34;29.26
61870;BME280;47810;42.264;23.826;2023-03-26T11:13:52;93272.81;;;19.08;30.70
61870;BME280;47810;42.264;23.826;2023-03-26T11:16:23;93263.94;;;18.91;29.44
61870;BME280;47810;42.264;23.826;2023-03-26T11:18:58;93265.44;;;19.51;27.88
61870;BME280;47810;42.264;23.826;2023-03-26T11:21:34;93259.09;;;19.36;27.27
61870;BME280;47810;42.264;23.826;2023-03-26T11:34:14;93264.31;;;19.21;28.42
61870;BME280;47810;42.264;23.826;2023-03-26T11:36:43;93259.50;;;18.15;30.46
61870;BME280;47810;42.264;23.826;2023-03-26T11:39:11;93255.41;;;18.96;28.87
61870;BME280;47810;42.264;23.826;2023-03-26T11:41:39;93246.75;;;19.26;27.64
61870;BME280;47810;42.264;23.826;2023-03-26T11:44:19;93251.06;;;19.76;27.42
61870;BME280;47810;42.264;23.826;2023-03-26T11:46:47;93257.75;;;19.48;27.34
61870;BME280;47810;42.264;23.826;2023-03-26T11:49:15;93255.06;;;18.82;27.77
61870;BME280;47810;42.264;23.826;2023-03-26T11:51:42;93253.06;;;19.25;26.84
61870;BME280;47810;42.264;23.826;2023-03-26T11:54:09;93249.03;;;18.97;26.58
61870;BME280;47810;42.264;23.826;2023-03-26T11:56:36;93241.34;;;19.67;28.59
61870;BME280;47810;42.264;23.826;2023-03-26T11:59:18;93249.06;;;19.78;27.73
61870;BME280;47810;42.264;23.826;2023-03-26T12:01:49;93237.34;;;20.27;26.07
61870;BME280;47810;42.264;23.826;2023-03-26T12:04:16;93237.31;;;19.88;25.74
61870;BME280;47810;42.264;23.826;2023-03-26T12:06:52;93223.88;;;20.43;27.54
61870;BME280;47810;42.264;23.826;2023-03-26T12:09:21;93212.88;;;20.22;24.35
61870;BME280;47810;42.264;23.826;2023-03-26T12:11:46;93218.47;;;20.12;25.82
61870;BME280;47810;42.264;23.826;2023-03-26T12:14:18;93216.28;;;19.19;26.34
61870;BME280;47810;42.264;23.826;2023-03-26T12:16:58;93208.53;;;19.57;26.20
61870;BME280;47810;42.264;23.826;2023-03-26T12:19:23;93219.81;;;20.16;25.85
61870;BME280;47810;42.264;23.826;2023-03-26T12:21:51;93198.88;;;19.31;24.91
61870;BME280;47810;42.264;23.826;2023-03-26T12:24:35;93201.19;;;19.59;26.77
61870;BME280;47810;42.264;23.826;2023-03-26T12:27:18;93187.44;;;19.70;25.93
61870;BME280;47810;42.264;23.826;2023-03-26T12:30:31;93195.09;;;19.90;26.51
61870;BME280;47810;42.264;23.826;2023-03-26T12:32:30;93188.13;;;20.20;25.68
61870;BME280;47810;42.264;23.826;2023-03-26T12:34:58;93182.91;;;20.27;25.26
61870;BME280;47810;42.264;23.826;2023-03-26T12:37:36;93184.00;;;20.01;24.83
61870;BME280;47810;42.264;23.826;2023-03-26T12:40:05;93183.09;;;19.61;25.13
61870;BME280;47810;42.264;23.826;2023-03-26T12:42:35;93180.56;;;19.84;25.80
61870;BME280;47810;42.264;23.826;2023-03-26T12:45:04;93171.88;;;20.44;26.70
61870;BME280;47810;42.264;23.826;2023-03-26T12:47:32;93162.84;;;21.00;24.64
61870;BME280;47810;42.264;23.826;2023-03-26T12:49:59;93154.38;;;20.65;25.23
61870;BME280;47810;42.264;23.826;2023-03-26T12:57:48;93138.59;;;20.93;24.41
61870;BME280;47810;42.264;23.826;2023-03-26T13:00:24;93142.41;;;21.13;22.61
61870;BME280;47810;42.264;23.826;2023-03-26T13:21:10;93122.41;;;21.39;23.66
61870;BME280;47810;42.264;23.826;2023-03-26T13:26:17;93118.06;;;20.54;22.71
61870;BME280;47810;42.264;23.826;2023-03-26T13:36:15;93108.19;;;20.92;22.11
61870;BME280;47810;42.264;23.826;2023-03-26T13:46:47;93115.84;;;21.18;21.09
61870;BME280;47810;42.264;23.826;2023-03-26T13:49:14;93116.88;;;21.17;22.57
61870;BME280;47810;42.264;23.826;2023-03-26T13:51:47;93119.19;;;20.60;20.97
61870;BME280;47810;42.264;23.826;2023-03-26T13:56:45;93114.84;;;19.65;20.99
61870;BME280;47810;42.264;23.826;2023-03-26T13:59:16;93120.66;;;20.08;20.99
61870;BME280;47810;42.264;23.826;2023-03-26T14:01:48;93125.53;;;20.05;19.83
61870;BME280;47810;42.264;23.826;2023-03-26T14:04:20;93129.94;;;19.97;20.21
61870;BME280;47810;42.264;23.826;2023-03-26T14:09:33;93123.94;;;20.18;20.84
61870;BME280;47810;42.264;23.826;2023-03-26T14:12:05;93124.75;;;20.27;20.98
61870;BME280;47810;42.264;23.826;2023-03-26T14:17:04;93130.28;;;19.22;21.13
61870;BME280;47810;42.264;23.826;2023-03-26T14:29:50;93125.31;;;19.11;21.68
61870;BME280;47810;42.264;23.826;2023-03-26T14:32:23;93123.16;;;18.98;21.65
61870;BME280;47810;42.264;23.826;2023-03-26T14:40:15;93116.53;;;19.50;22.81
61870;BME280;47810;42.264;23.826;2023-03-26T14:53:29;93111.63;;;18.90;22.16
61870;BME280;47810;42.264;23.826;2023-03-26T14:56:17;93104.41;;;18.57;22.63
61870;BME280;47810;42.264;23.826;2023-03-26T15:01:45;93100.88;;;18.49;23.41
61870;BME280;47810;42.264;23.826;2023-03-26T15:37:22;93128.25;;;16.63;26.56
61870;BME280;47810;42.264;23.826;2023-03-26T15:43:18;93124.25;;;16.41;26.42
61870;BME280;47810;42.264;23.826;2023-03-26T15:55:39;93131.13;;;15.80;28.53
61870;BME280;47810;42.264;23.826;2023-03-26T15:58:11;93125.22;;;15.49;27.25
61870;BME280;47810;42.264;23.826;2023-03-26T16:09:02;93122.16;;;15.54;27.21
61870;BME280;47810;42.264;23.826;2023-03-26T16:11:45;93125.59;;;15.64;27.53
61870;BME280;47810;42.264;23.826;2023-03-26T16:14:17;93131.13;;;15.16;28.14
61870;BME280;47810;42.264;23.826;2023-03-26T16:22:36;93133.19;;;14.75;29.66
61870;BME280;47810;42.264;23.826;2023-03-26T16:25:19;93134.59;;;14.69;30.02
61870;BME280;47810;42.264;23.826;2023-03-26T16:30:35;93141.84;;;13.89;30.70
61870;BME280;47810;42.264;23.826;2023-03-26T16:33:19;93143.78;;;13.78;31.61
61870;BME280;47810;42.264;23.826;2023-03-26T16:35:58;93145.19;;;13.82;31.11
61870;BME280;47810;42.264;23.826;2023-03-26T16:38:26;93147.00;;;13.71;30.96
61870;BME280;47810;42.264;23.826;2023-03-26T16:41:18;93151.25;;;13.53;31.87
61870;BME280;47810;42.264;23.826;2023-03-26T16:43:50;93150.28;;;13.54;31.16
61870;BME280;47810;42.264;23.826;2023-03-26T16:46:24;93148.09;;;13.28;31.89
61870;BME280;47810;42.264;23.826;2023-03-26T16:54:19;93160.03;;;13.13;32.31
61870;BME280;47810;42.264;23.826;2023-03-26T16:56:51;93158.13;;;13.25;33.03
61870;BME280;47810;42.264;23.826;2023-03-26T17:01:56;93174.75;;;13.06;34.66
61870;BME280;47810;42.264;23.826;2023-03-26T17:04:26;93173.63;;;12.99;33.65
61870;BME280;47810;42.264;23.826;2023-03-26T17:12:13;93181.84;;;12.54;34.04
61870;BME280;47810;42.264;23.826;2023-03-26T17:15:01;93176.16;;;13.00;33.07
61870;BME280;47810;42.264;23.826;2023-03-26T17:20:17;93189.91;;;12.73;32.71
61870;BME280;47810;42.264;23.826;2023-03-26T17:25:36;93200.78;;;12.17;34.08
61870;BME280;47810;42.264;23.826;2023-03-26T17:33:28;93216.41;;;12.20;34.23
61870;BME280;47810;42.264;23.826;2023-03-26T17:41:01;93221.41;;;12.02;34.34
61870;BME280;47810;42.264;23.826;2023-03-26T17:45:59;93221.31;;;11.70;34.24
61870;BME280;47810;42.264;23.826;2023-03-26T17:48:25;93220.22;;;11.73;34.79
61870;BME280;47810;42.264;23.826;2023-03-26T17:50:55;93212.78;;;11.66;34.54
61870;BME280;47810;42.264;23.826;2023-03-26T17:53:22;93222.06;;;11.38;34.91
61870;BME280;47810;42.264;23.826;2023-03-26T17:55:50;93224.25;;;11.33;34.86
61870;BME280;47810;42.264;23.826;2023-03-26T18:00:45;93220.16;;;11.40;35.35
61870;BME280;47810;42.264;23.826;2023-03-26T18:03:22;93226.38;;;11.28;35.44
61870;BME280;47810;42.264;23.826;2023-03-26T18:05:50;93226.00;;;11.33;36.27
61870;BME280;47810;42.264;23.826;2023-03-26T18:18:58;93224.00;;;10.56;37.56
61870;BME280;47810;42.264;23.826;2023-03-26T18:21:33;93232.56;;;10.71;37.42
61870;BME280;47810;42.264;23.826;2023-03-26T18:24:00;93234.94;;;10.63;37.94
61870;BME280;47810;42.264;23.826;2023-03-26T18:29:31;93228.94;;;10.72;38.28
61870;BME280;47810;42.264;23.826;2023-03-26T18:32:19;93232.16;;;10.53;38.32
61870;BME280;47810;42.264;23.826;2023-03-26T18:34:47;93222.69;;;10.62;38.04
61870;BME280;47810;42.264;23.826;2023-03-26T18:37:21;93223.16;;;10.56;38.05
61870;BME280;47810;42.264;23.826;2023-03-26T18:40:00;93225.78;;;10.44;38.58
61870;BME280;47810;42.264;23.826;2023-03-26T18:42:31;93229.09;;;10.35;38.51
61870;BME280;47810;42.264;23.826;2023-03-26T18:44:57;93221.00;;;10.25;39.41
61870;BME280;47810;42.264;23.826;2023-03-26T18:47:24;93218.56;;;10.22;39.06
61870;BME280;47810;42.264;23.826;2023-03-26T18:49:50;93218.41;;;10.37;38.47